Latest Coastal Weather Observations for Sydney Harbour

IDN60701

Issued at 7:55 pm EDT Sunday 23 November 2014 (issued every 10 minutes, with the page automatically refreshed every 10 minutes)

About coastal observations | Map of coastal stations | Coastal observations for NSW | Marine services | Other Formats
Station Details ID: 066196 Name: WEDDING CAKE WEST Lat: -33.84 Lon: 151.26 Height: 6.0 m
Data from the previous 72 hours. | See also: Recent months for locations in New South Wales
Date/Time
EDT
Temp

°C
Wind Pressure Rain
since 9am
mm
Weather Cloud Vis
km
Sea
Height
m
Swell
Dir
 
Speed
knots
Gust
knots
hPa Trend Height
m
Period
s
Dir
23/07:30pm 21.6 S 16 21 - - - - - - - - - -
23/07:00pm 21.5 S 19 26 - - - - - - - - - -
23/06:30pm 22.3 SSE 14 19 - - - - - - - - - -
23/06:00pm 23.3 SE 11 13 - - - - - - - - - -
23/05:30pm 22.4 E 11 13 - - - - - - - - - -
23/05:17pm 22.3 ESE 5 6 - - - - - - - - - -
23/05:00pm 22.0 ENE 23 26 - - - - - - - - - -
23/04:30pm 22.7 E 14 20 - - - - - - - - - -
23/04:00pm 24.3 NNE 14 20 - - - - - - - - - -
23/03:30pm 23.7 NNE 15 19 - - - - - - - - - -
23/03:00pm 21.7 NNE 16 19 - - - - - - - - - -
23/02:30pm 21.7 N 15 17 - - - - - - - - - -
23/02:00pm 21.5 N 16 18 - - - - - - - - - -
23/01:30pm 21.5 NE 10 11 - - - - - - - - - -
23/01:00pm 20.4 ENE 12 14 - - - - - - - - - -
23/12:30pm 20.7 ENE 10 11 - - - - - - - - - -
23/12:00pm 20.7 E 9 11 - - - - - - - - - -
23/11:30am 21.0 ENE 8 10 - - - - - - - - - -
23/11:00am 20.9 ENE 11 11 - - - - - - - - - -
23/10:30am 21.0 ENE 10 12 - - - - - - - - - -
23/10:00am 21.4 ENE 10 11 - - - - - - - - - -
23/09:30am 21.8 N 5 6 - - - - - - - - - -
23/09:00am 22.8 N 4 4 - - - - - - - - - -
23/08:30am 21.6 CALM 0 3 - - - - - - - - - -
23/08:00am 22.2 N 3 4 - - - - - - - - - -
23/07:30am 20.2 N 7 8 - - - - - - - - - -
23/07:00am 20.0 N 3 5 - - - - - - - - - -
23/06:30am 20.0 WNW 3 4 - - - - - - - - - -
23/06:00am 19.8 N 5 6 - - - - - - - - - -
23/05:30am 19.8 N 7 8 - - - - - - - - - -
23/05:00am 20.0 N 8 9 - - - - - - - - - -
23/04:30am 20.1 N 6 7 - - - - - - - - - -
23/04:00am 20.3 N 4 6 - - - - - - - - - -
23/03:30am 20.2 N 4 7 - - - - - - - - - -
23/03:00am 20.3 N 1 4 - - - - - - - - - -
23/02:30am 20.4 NW 4 6 - - - - - - - - - -
23/02:00am 20.5 N 7 9 - - - - - - - - - -
23/01:30am 20.6 N 5 8 - - - - - - - - - -
23/01:00am 20.7 NNW 5 6 - - - - - - - - - -
23/12:30am 20.8 W 4 6 - - - - - - - - - -
23/12:00am 20.9 N 8 9 - - - - - - - - - -
 
Date/Time
EDT
Temp

°C
Wind Pressure Rain
since 9am
mm
Weather Cloud Vis
km
Sea
Height
m
Swell
Dir
 
Speed
knots
Gust
knots
hPa Trend Height
m
Period
s
Dir
22/11:30pm 20.7 NNE 9 10 - - - - - - - - - -
22/11:00pm 20.5 N 11 13 - - - - - - - - - -
22/10:30pm 20.5 N 10 12 - - - - - - - - - -
22/10:00pm 20.7 N 10 13 - - - - - - - - - -
22/09:30pm 20.6 NNE 10 11 - - - - - - - - - -
22/09:00pm 20.6 NE 11 13 - - - - - - - - - -
22/08:30pm 20.7 NE 10 12 - - - - - - - - - -
22/08:00pm 20.6 NE 10 12 - - - - - - - - - -
22/07:30pm 20.6 NE 10 12 - - - - - - - - - -
22/07:00pm 20.6 NE 11 12 - - - - - - - - - -
22/06:30pm 20.7 E 11 13 - - - - - - - - - -
22/06:00pm 20.7 E 11 15 - - - - - - - - - -
22/05:30pm 20.7 E 11 13 - - - - - - - - - -
22/05:00pm 20.9 ENE 11 14 - - - - - - - - - -
22/04:30pm 20.8 ENE 11 15 - - - - - - - - - -
22/04:00pm 21.3 E 11 14 - - - - - - - - - -
22/03:30pm 21.1 E 11 15 - - - - - - - - - -
22/03:00pm 21.5 E 10 13 - - - - - - - - - -
22/02:30pm 21.3 E 11 13 - - - - - - - - - -
22/02:00pm 21.1 ESE 11 13 - - - - - - - - - -
22/01:30pm 21.3 E 10 12 - - - - - - - - - -
22/01:00pm 21.1 E 10 12 - - - - - - - - - -
22/12:30pm 20.9 E 9 11 - - - - - - - - - -
22/12:00pm 21.4 E 8 10 - - - - - - - - - -
22/11:30am 21.3 E 6 8 - - - - - - - - - -
22/11:00am 20.6 ENE 9 11 - - - - - - - - - -
22/10:30am 21.9 SE 6 11 - - - - - - - - - -
22/10:00am 21.5 S 3 6 - - - - - - - - - -
22/09:30am 20.3 S 7 9 - - - - - - - - - -
22/09:00am 20.4 SSE 7 10 - - - - - - - - - -
22/08:30am 19.8 S 8 11 - - - - - - - - - -
22/08:00am 20.0 S 9 11 - - - - - - - - - -
22/07:30am 19.8 S 9 11 - - - - - - - - - -
22/07:00am 19.7 S 9 13 - - - - - - - - - -
22/06:30am 19.7 S 8 9 - - - - - - - - - -
22/06:00am 19.7 S 11 13 - - - - - - - - - -
22/05:30am 19.7 SSW 10 12 - - - - - - - - - -
22/05:00am 19.6 S 9 11 - - - - - - - - - -
22/04:30am 19.7 S 11 13 - - - - - - - - - -
22/04:00am 19.8 S 11 13 - - - - - - - - - -
22/03:30am 19.9 S 12 15 - - - - - - - - - -
22/03:00am 20.0 S 12 16 - - - - - - - - - -
22/02:30am 20.1 S 15 20 - - - - - - - - - -
22/02:00am 20.2 S 14 17 - - - - - - - - - -
22/01:30am 20.2 S 16 20 - - - - - - - - - -
22/01:00am 20.4 S 16 21 - - - - - - - - - -
22/12:30am 20.5 S 17 22 - - - - - - - - - -
22/12:00am 20.5 S 17 23 - - - - - - - - - -
 
Date/Time
EDT
Temp

°C
Wind Pressure Rain
since 9am
mm
Weather Cloud Vis
km
Sea
Height
m
Swell
Dir
 
Speed
knots
Gust
knots
hPa Trend Height
m
Period
s
Dir
21/11:30pm 20.5 S 21 27 - - - - - - - - - -
21/11:00pm 20.8 S 18 25 - - - - - - - - - -
21/10:30pm 21.0 S 19 27 - - - - - - - - - -
21/10:00pm 21.1 S 18 26 - - - - - - - - - -
21/09:36pm 21.2 S 19 29 - - - - - - - - - -
21/09:30pm 21.2 S 21 29 - - - - - - - - - -
21/09:00pm 21.6 S 23 33 - - - - - - - - - -
21/08:30pm 21.8 S 23 33 - - - - - - - - - -
21/08:28pm 21.8 S 23 33 - - - - - - - - - -
21/08:00pm 22.0 S 22 30 - - - - - - - - - -
21/07:30pm 22.2 S 21 26 - - - - - - - - - -
21/07:00pm 22.3 S 19 24 - - - - - - - - - -
21/06:30pm 23.0 S 21 26 - - - - - - - - - -
21/06:00pm 24.8 S 17 22 - - - - - - - - - -
21/05:58pm 25.0 S 16 21 - - - - - - - - - -
21/05:30pm 26.1 SE 7 9 - - - - - - - - - -
21/05:00pm 25.5 E 7 9 - - - - - - - - - -
21/04:30pm 26.3 E 8 9 - - - - - - - - - -
21/04:00pm 25.9 E 8 9 - - - - - - - - - -
21/03:30pm 25.7 E 9 12 - - - - - - - - - -
21/03:00pm 25.4 E 10 11 - - - - - - - - - -
21/02:30pm 25.6 ENE 8 10 - - - - - - - - - -
21/02:00pm 25.1 ENE 10 13 - - - - - - - - - -
21/01:30pm 25.4 E 10 13 - - - - - - - - - -
21/01:00pm 25.0 NE 8 11 - - - - - - - - - -
21/12:30pm 23.2 ENE 6 8 - - - - - - - - - -
21/12:00pm 23.2 E 10 12 - - - - - - - - - -
21/11:30am 25.0 ESE 8 9 - - - - - - - - - -
21/11:00am 25.4 SSE 5 9 - - - - - - - - - -
21/10:30am 24.9 SSW 5 7 - - - - - - - - - -
21/10:00am 26.0 S 7 8 - - - - - - - - - -
21/09:30am 26.2 S 5 8 - - - - - - - - - -
21/09:00am 25.6 W 3 7 - - - - - - - - - -
21/08:30am 24.3 N 9 11 - - - - - - - - - -
21/08:00am 25.9 N 8 10 - - - - - - - - - -
21/07:30am 25.4 N 7 10 - - - - - - - - - -
21/07:00am 25.1 N 6 9 - - - - - - - - - -
21/06:30am 24.0 SW 8 8 - - - - - - - - - -
21/06:00am 25.6 NW 9 11 - - - - - - - - - -
21/05:30am 25.0 W 15 21 - - - - - - - - - -
21/05:25am 25.0 W 15 21 - - - - - - - - - -
21/05:00am 23.4 SW 8 11 - - - - - - - - - -
21/04:30am 21.9 NNW 4 6 - - - - - - - - - -
21/04:00am 23.1 WSW 5 7 - - - - - - - - - -
21/03:30am 22.2 SW 5 8 - - - - - - - - - -
21/03:00am 21.3 N 2 4 - - - - - - - - - -
21/02:30am 21.8 N 5 5 - - - - - - - - - -
21/02:00am 21.4 N 5 6 - - - - - - - - - -
21/01:30am 21.4 N 8 8 - - - - - - - - - -
21/01:00am 21.2 NNE 6 6 - - - - - - - - - -
21/12:30am 21.6 NNE 6 7 - - - - - - - - - -
21/12:00am 21.8 NNE 3 4 - - - - - - - - - -
 
Date/Time
EDT
Temp

°C
Wind Pressure Rain
since 9am
mm
Weather Cloud Vis
km
Sea
Height
m
Swell
Dir
 
Speed
knots
Gust
knots
hPa Trend Height
m
Period
s
Dir
20/11:30pm 21.7 NNE 5 7 - - - - - - - - - -
20/11:00pm 21.9 N 7 11 - - - - - - - - - -
20/10:30pm 21.8 NNE 7 8 - - - - - - - - - -
20/10:00pm 22.0 NNE 7 9 - - - - - - - - - -
20/09:30pm 22.2 NE 10 12 - - - - - - - - - -
20/09:00pm 22.4 NE 11 13 - - - - - - - - - -
20/08:30pm 22.3 NE 10 12 - - - - - - - - - -
20/08:00pm 22.2 NE 11 14 - - - - - - - - - -

Other Formats:

Comma delimited format used in spreadsheet applications
http://www.bom.gov.au/fwo/IDN60701/IDN60701.95766.axf

JavaScript Object Notation format (JSON) in row-major order
http://www.bom.gov.au/fwo/IDN60701/IDN60701.95766.json